Eliporto le dune

IT-0604 · Apulia, Włochy

Historia METAR IT-0604 · Eliporto le dune

Poniżej widzisz METAR-y z ostatnich kilku dni. Wybierz rok, aby przeglądać starsze METAR-y, począwszy od roku 2007.

15 lipca 2024

Czas Kod Pogoda Temp. Widoczność Sufit Wiatr METAR/SPECI
01:20
V
27 °C 10 km+ - 340° 340° 9 kt METAR LIBR 142320Z 34009KT CAVOK 27/25 Q1011
00:50
V
27 °C 10 km+ - 330° 330° 10 kt METAR LIBR 142250Z 33010KT CAVOK 27/24 Q1011
00:20
V
28 °C 10 km+ - 330° 330° 11 kt METAR LIBR 142220Z 33011KT CAVOK 28/24 Q1011

14 lipca 2024

Czas Kod Pogoda Temp. Widoczność Sufit Wiatr METAR/SPECI
23:50
V
27 °C 10 km+ - 330° 330° 10 kt METAR LIBR 142150Z 33010KT CAVOK 27/24 Q1011
23:20
V
27 °C 10 km+ - 330° 330° 10 kt METAR LIBR 142120Z 33010KT CAVOK 27/24 Q1011
22:50
V
27 °C 10 km+ - 330° 330° 9 kt METAR LIBR 142050Z 33009KT CAVOK 27/25 Q1011
22:20
V
27 °C 10 km+ - 330° 330° 9 kt METAR LIBR 142020Z 33009KT CAVOK 27/25 Q1011
21:50
V
27 °C 10 km+ - 330° 330° 10 kt METAR LIBR 141950Z 33010KT CAVOK 27/25 Q1011
21:20
V
28 °C 10 km+ - 330° 330° 11 kt METAR LIBR 141920Z 33011KT CAVOK 28/25 Q1011
20:50
V
28 °C 10 km+ - 330° 330° 12 kt METAR LIBR 141850Z 33012KT CAVOK 28/26 Q1011
20:20
V
28 °C 10 km+ - 330° 330° 11 kt METAR LIBR 141820Z 33011KT CAVOK 28/26 Q1010
19:50
V
28 °C 10 km+ - 330° 330° 10 kt METAR LIBR 141750Z 33010KT CAVOK 28/26 Q1010
19:20
V
29 °C 10 km+ - 330° 330° 11 kt METAR LIBR 141720Z 33011KT CAVOK 29/26 Q1010
18:50
V
29 °C 10 km+ - 330° 330° 11 kt METAR LIBR 141650Z 33011KT CAVOK 29/26 Q1010
18:20
V
29 °C 10 km+ - 330° 330° 14 kt METAR LIBR 141620Z 33014KT CAVOK 29/26 Q1010
17:50
V
29 °C 10 km+ - 330° 330° 12 kt METAR LIBR 141550Z 33012KT CAVOK 29/26 Q1010
17:20
V
29 °C 10 km+ - 340° 340° 10 kt METAR LIBR 141520Z 34010KT 310V010 CAVOK 29/26 Q1010
16:50
V
30 °C 10 km+ - 340° 340° 12 kt METAR LIBR 141450Z 34012KT CAVOK 30/26 Q1010
16:20
V
30 °C 10 km+ - 360° 360° 10 kt METAR LIBR 141420Z 36010KT CAVOK 30/26 Q1010
15:50
V
30 °C 10 km+ - 360° 360° 10 kt METAR LIBR 141350Z 36010KT CAVOK 30/25 Q1010
15:20
V
31 °C 10 km+ - 010° 010° 10 kt METAR LIBR 141320Z 01010KT 330V030 CAVOK 31/25 Q1011
14:50
V
31 °C 10 km+ - 020° 020° 9 kt METAR LIBR 141250Z 02009KT CAVOK 31/23 Q1011
14:20
V
31 °C 10 km+ - 010° 010° 10 kt METAR LIBR 141220Z 01010KT CAVOK 31/22 Q1011
13:50
V
32 °C 10 km+ - 010° 010° 10 kt METAR LIBR 141150Z 01010KT CAVOK 32/20 Q1011
13:20
V
32 °C 10 km+ - 030° 030° 8 kt METAR LIBR 141120Z 03008KT CAVOK 32/20 Q1011
12:50
V
32 °C 10 km+ - 040° 040° 6 kt METAR LIBR 141050Z 04006KT 010V070 CAVOK 32/21 Q1011
12:20
V
32 °C 10 km+ - 060° 060° 6 kt METAR LIBR 141020Z 06006KT 020V090 CAVOK 32/20 Q1011
11:50
V
33 °C 10 km+ - 030° 030° 5 kt METAR LIBR 140950Z 03005KT 350V080 CAVOK 33/17 Q1011
11:20
V
32 °C 10 km+ - 070° 070° 6 kt METAR LIBR 140920Z 07006KT CAVOK 32/19 Q1011
10:50
V
32 °C 10 km+ - 040° 040° 5 kt METAR LIBR 140850Z 04005KT CAVOK 32/20 Q1011
10:20
V
32 °C 10 km+ - 060° 060° 5 kt METAR LIBR 140820Z 06005KT 030V090 CAVOK 32/21 Q1011
09:50
V
30 °C 10 km+ - 040° 040° 4 kt METAR LIBR 140750Z 04004KT CAVOK 30/23 Q1011
09:20
V
30 °C 10 km+ - 050° 050° 4 kt METAR LIBR 140720Z 05004KT CAVOK 30/24 Q1011
08:50
V
30 °C 10 km+ - 030° 030° 4 kt METAR LIBR 140650Z 03004KT 360V090 CAVOK 30/23 Q1011
08:20
V
31 °C 10 km+ - 020° 020° 4 kt METAR LIBR 140620Z 02004KT 340V040 CAVOK 31/18 Q1011
07:50
V
31 °C 10 km+ - 330° 330° 3 kt METAR LIBR 140550Z 33003KT CAVOK 31/19 Q1010
07:20
V
29 °C 10 km+ - 310° 310° 5 kt METAR LIBR 140520Z 31005KT CAVOK 29/18 Q1010
06:50
V
27 °C 10 km+ - 260° 260° 3 kt METAR LIBR 140450Z 26003KT 230V300 CAVOK 27/19 Q1010
06:20
V
26 °C 10 km+ - 240° 240° 4 kt METAR LIBR 140420Z 24004KT CAVOK 26/20 Q1010
05:50
V
26 °C 10 km+ - 250° 250° 6 kt METAR LIBR 140350Z 25006KT CAVOK 26/21 Q1009
05:20
V
26 °C 10 km+ - 240° 240° 6 kt METAR LIBR 140320Z 24006KT CAVOK 26/22 Q1009
04:50
V
26 °C 10 km+ - 220° 220° 3 kt METAR LIBR 140250Z 22003KT 190V260 CAVOK 26/22 Q1009
04:20
V
27 °C 10 km+ - 220° 220° 3 kt METAR LIBR 140220Z 22003KT 170V250 CAVOK 27/22 Q1009
03:50
V
27 °C 10 km+ - 230° 230° 5 kt METAR LIBR 140150Z 23005KT CAVOK 27/22 Q1009
03:20
V
27 °C 10 km+ - 250° 250° 4 kt METAR LIBR 140120Z 25004KT CAVOK 27/22 Q1009
02:50
V
27 °C 10 km+ - 240° 240° 5 kt METAR LIBR 140050Z 24005KT CAVOK 27/22 Q1009
02:20
V
28 °C 10 km+ - Var Var 2 kt METAR LIBR 140020Z VRB02KT CAVOK 28/21 Q1009
01:50
V
29 °C 10 km+ - 220° 220° 3 kt METAR LIBR 132350Z 22003KT CAVOK 29/20 Q1009
01:20
V
29 °C 10 km+ - 240° 240° 3 kt METAR LIBR 132320Z 24003KT 200V260 CAVOK 29/20 Q1009
00:50
V
29 °C 10 km+ - 230° 230° 4 kt METAR LIBR 132250Z 23004KT CAVOK 29/18 Q1009
00:20
V
30 °C 10 km+ - 240° 240° 4 kt METAR LIBR 132220Z 24004KT CAVOK 30/17 Q1009

13 lipca 2024

Czas Kod Pogoda Temp. Widoczność Sufit Wiatr METAR/SPECI
23:50
V
30 °C 10 km+ - 210° 210° 4 kt METAR LIBR 132150Z 21004KT CAVOK 30/18 Q1009
23:20
V
31 °C 10 km+ - 210° 210° 5 kt METAR LIBR 132120Z 21005KT 180V250 CAVOK 31/18 Q1009
22:50
V
31 °C 10 km+ - 220° 220° 5 kt METAR LIBR 132050Z 22005KT CAVOK 31/20 Q1009
22:20
V
31 °C 10 km+ - 220° 220° 5 kt METAR LIBR 132020Z 22005KT 180V240 CAVOK 31/20 Q1009
21:50
V
32 °C 10 km+ - 230° 230° 6 kt METAR LIBR 131950Z 23006KT CAVOK 32/19 Q1009
21:20
V
33 °C 10 km+ - 220° 220° 7 kt METAR LIBR 131920Z 22007KT CAVOK 33/19 Q1009
20:50
V
33 °C 10 km+ - 200° 200° 5 kt METAR LIBR 131850Z 20005KT CAVOK 33/19 Q1009
20:20
V
33 °C 10 km+ - 150° 150° 4 kt METAR LIBR 131820Z 15004KT CAVOK 33/17 Q1009
19:50
V
34 °C 10 km+ - 150° 150° 5 kt METAR LIBR 131750Z 15005KT CAVOK 34/15 Q1009
19:20
V
34 °C 10 km+ - 150° 150° 6 kt METAR LIBR 131720Z 15006KT 110V170 CAVOK 34/15 Q1009
18:50
V
34 °C 10 km+ - 140° 140° 7 kt METAR LIBR 131650Z 14007KT CAVOK 34/16 Q1009
18:20
V
34 °C 10 km+ - 130° 130° 7 kt METAR LIBR 131620Z 13007KT CAVOK 34/17 Q1009
17:50
V
33 °C 10 km+ - 130° 130° 8 kt METAR LIBR 131550Z 13008KT CAVOK 33/17 Q1008
17:20
V
33 °C 10 km+ - 120° 120° 8 kt METAR LIBR 131520Z 12008KT CAVOK 33/20 Q1008
16:50
V
33 °C 10 km+ - 120° 120° 8 kt METAR LIBR 131450Z 12008KT 090V150 CAVOK 33/19 Q1009
16:20
V
33 °C 10 km+ - 120° 120° 8 kt METAR LIBR 131420Z 12008KT 080V160 CAVOK 33/19 Q1009
15:50
V
33 °C 10 km+ - 110° 110° 9 kt METAR LIBR 131350Z 11009KT CAVOK 33/22 Q1009
15:20
V
33 °C 10 km+ - 110° 110° 9 kt METAR LIBR 131320Z 11009KT CAVOK 33/21 Q1009
14:50
V
33 °C 10 km+ - 110° 110° 9 kt METAR LIBR 131250Z 11009KT CAVOK 33/22 Q1009
14:20
V
32 °C 10 km+ - 110° 110° 10 kt METAR LIBR 131220Z 11010KT 9999 FEW040 32/23 Q1009
13:50
V
31 °C 10 km+ - 110° 110° 11 kt METAR LIBR 131150Z 11011KT CAVOK 31/23 Q1009
13:20
V
32 °C 10 km+ - 110° 110° 11 kt METAR LIBR 131120Z 11011KT CAVOK 32/23 Q1009
12:50
V
32 °C 10 km+ - 110° 110° 10 kt METAR LIBR 131050Z 11010KT CAVOK 32/22 Q1009
12:20
V
33 °C 10 km+ - 110° 110° 10 kt METAR LIBR 131020Z 11010KT CAVOK 33/22 Q1010
11:50
V
32 °C 10 km+ - 100° 100° 11 kt METAR LIBR 130950Z 10011KT CAVOK 32/21 Q1010
11:20
V
33 °C 10 km+ - 100° 100° 8 kt METAR LIBR 130920Z 10008KT CAVOK 33/21 Q1010
10:50
V
33 °C 10 km+ - 110° 110° 7 kt METAR LIBR 130850Z 11007KT CAVOK 33/20 Q1010
10:20
V
33 °C 10 km+ - 110° 110° 7 kt METAR LIBR 130820Z 11007KT CAVOK 33/20 Q1010
09:50
V
32 °C 10 km+ - 110° 110° 6 kt METAR LIBR 130750Z 11006KT 090V150 CAVOK 32/21 Q1010
09:20
V
32 °C 10 km+ - 160° 160° 5 kt METAR LIBR 130720Z 16005KT CAVOK 32/19 Q1010
08:50
V
31 °C 10 km+ - 170° 170° 6 kt METAR LIBR 130650Z 17006KT CAVOK 31/19 Q1010
08:20
V
30 °C 10 km+ - 160° 160° 5 kt METAR LIBR 130620Z 16005KT CAVOK 30/20 Q1010
07:50
V
28 °C 10 km+ - 160° 160° 5 kt METAR LIBR 130550Z 16005KT CAVOK 28/20 Q1010
07:20
V
27 °C 10 km+ - 160° 160° 4 kt METAR LIBR 130520Z 16004KT CAVOK 27/20 Q1010
06:50
V
26 °C 10 km+ - 160° 160° 2 kt METAR LIBR 130450Z 16002KT CAVOK 26/21 Q1010
06:20
V
26 °C 10 km+ - Var Var 1 kt METAR LIBR 130420Z VRB01KT CAVOK 26/20 Q1009
05:50
V
25 °C 10 km+ - Var Var 2 kt METAR LIBR 130350Z VRB02KT CAVOK 25/20 Q1009
05:20
V
25 °C 10 km+ - 240° 240° 4 kt METAR LIBR 130320Z 24004KT CAVOK 25/20 Q1009
04:50
V
26 °C 10 km+ - 270° 270° 4 kt METAR LIBR 130250Z 27004KT CAVOK 26/21 Q1009
04:20
V
26 °C 10 km+ - 190° 190° 5 kt METAR LIBR 130220Z 19005KT CAVOK 26/21 Q1009
03:50
V
26 °C 10 km+ - 170° 170° 4 kt METAR LIBR 130150Z 17004KT CAVOK 26/21 Q1009
03:20
V
26 °C 10 km+ - 160° 160° 4 kt METAR LIBR 130120Z 16004KT CAVOK 26/21 Q1009
02:20
V
27 °C 10 km+ - 180° 180° 2 kt METAR LIBR 130020Z 18002KT CAVOK 27/21 Q1009
01:50
V
27 °C 10 km+ - 180° 180° 3 kt METAR LIBR 122350Z 18003KT CAVOK 27/21 Q1009
01:20
V
27 °C 10 km+ - 180° 180° 3 kt METAR LIBR 122320Z 18003KT CAVOK 27/21 Q1009
00:50
V
27 °C 10 km+ - 150° 150° 4 kt METAR LIBR 122250Z 15004KT CAVOK 27/21 Q1010
00:20
V
27 °C 10 km+ - 160° 160° 3 kt METAR LIBR 122220Z 16003KT CAVOK 27/20 Q1010

12 lipca 2024

Czas Kod Pogoda Temp. Widoczność Sufit Wiatr METAR/SPECI
23:50
V
27 °C 10 km+ - 160° 160° 4 kt METAR LIBR 122150Z 16004KT CAVOK 27/22 Q1010
23:20
V
28 °C 10 km+ - 140° 140° 4 kt METAR LIBR 122120Z 14004KT CAVOK 28/23 Q1010
22:50
V
28 °C 10 km+ - 150° 150° 4 kt METAR LIBR 122050Z 15004KT CAVOK 28/21 Q1010
22:20
V
28 °C 10 km+ - 150° 150° 4 kt METAR LIBR 122020Z 15004KT CAVOK 28/23 Q1010
21:50
V
28 °C 10 km+ - 150° 150° 5 kt METAR LIBR 121950Z 15005KT CAVOK 28/23 Q1010
21:20
V
28 °C 10 km+ - 110° 110° 4 kt METAR LIBR 121920Z 11004KT CAVOK 28/23 Q1009
20:50
V
28 °C 10 km+ - 090° 090° 3 kt METAR LIBR 121850Z 09003KT CAVOK 28/23 Q1009
20:20
V
29 °C 10 km+ - Var Var 1 kt METAR LIBR 121820Z VRB01KT CAVOK 29/22 Q1009
19:50
V
29 °C 10 km+ - Var Var 2 kt METAR LIBR 121750Z VRB02KT CAVOK 29/23 Q1010
19:20
V
29 °C 10 km+ - 080° 080° 3 kt METAR LIBR 121720Z 08003KT 050V120 CAVOK 29/23 Q1010
18:50
V
29 °C 10 km+ - 050° 050° 4 kt METAR LIBR 121650Z 05004KT 030V090 CAVOK 29/24 Q1010
18:20
V
29 °C 10 km+ - 040° 040° 5 kt METAR LIBR 121620Z 04005KT 360V060 CAVOK 29/23 Q1010
17:50
V
29 °C 10 km+ - 040° 040° 6 kt METAR LIBR 121550Z 04006KT CAVOK 29/23 Q1010
17:20
V
29 °C 10 km+ - 050° 050° 4 kt METAR LIBR 121520Z 05004KT 010V090 CAVOK 29/23 Q1010
16:50
V
30 °C 10 km+ - 050° 050° 5 kt METAR LIBR 121450Z 05005KT 020V080 CAVOK 30/23 Q1010
16:20
V
30 °C 10 km+ - 070° 070° 5 kt METAR LIBR 121420Z 07005KT 020V110 CAVOK 30/23 Q1010
15:50
V
30 °C 10 km+ - 050° 050° 5 kt METAR LIBR 121350Z 05005KT 020V090 CAVOK 30/22 Q1011
15:20
V
30 °C 10 km+ - 040° 040° 5 kt METAR LIBR 121320Z 04005KT 360V070 CAVOK 30/22 Q1011
14:50
V
30 °C 10 km+ - 050° 050° 7 kt METAR LIBR 121250Z 05007KT CAVOK 30/23 Q1011
14:20
V
30 °C 10 km+ - 040° 040° 7 kt METAR LIBR 121220Z 04007KT CAVOK 30/22 Q1011
13:50
V
30 °C 10 km+ - 040° 040° 7 kt METAR LIBR 121150Z 04007KT CAVOK 30/22 Q1011
13:20
V
30 °C 10 km+ - 040° 040° 7 kt METAR LIBR 121120Z 04007KT CAVOK 30/21 Q1011
12:50
V
30 °C 10 km+ - 030° 030° 6 kt METAR LIBR 121050Z 03006KT CAVOK 30/21 Q1012
12:20
V
30 °C 10 km+ - 030° 030° 6 kt METAR LIBR 121020Z 03006KT 360V060 CAVOK 30/21 Q1012
11:50
V
30 °C 10 km+ - 030° 030° 7 kt METAR LIBR 120950Z 03007KT CAVOK 30/21 Q1012
11:20
V
30 °C 10 km+ - 030° 030° 6 kt METAR LIBR 120920Z 03006KT CAVOK 30/21 Q1012
10:50
V
30 °C 10 km+ - 040° 040° 6 kt METAR LIBR 120850Z 04006KT 350V060 CAVOK 30/22 Q1012
10:20
V
30 °C 10 km+ - 030° 030° 7 kt METAR LIBR 120820Z 03007KT CAVOK 30/20 Q1012
09:50
V
30 °C 10 km+ - 020° 020° 7 kt METAR LIBR 120750Z 02007KT CAVOK 30/19 Q1012
09:20
V
30 °C 10 km+ - 010° 010° 6 kt METAR LIBR 120720Z 01006KT 350V060 CAVOK 30/19 Q1012
08:50
V
30 °C 10 km+ - 340° 340° 6 kt METAR LIBR 120650Z 34006KT 310V020 CAVOK 30/19 Q1012
08:20
V
29 °C 10 km+ - 330° 330° 4 kt METAR LIBR 120620Z 33004KT 300V010 CAVOK 29/20 Q1012
07:50
V
29 °C 10 km+ - 320° 320° 5 kt METAR LIBR 120550Z 32005KT 290V350 CAVOK 29/20 Q1012
Zgłoś zmianę